sensor_id;sensor_type;location;lat;lon;timestamp;temperature;humidity
48162;DHT22;33950;48.154;16.316;2023-05-10T00:00:59;14.10;80.30
48162;DHT22;33950;48.154;16.316;2023-05-10T00:03:46;14.10;80.40
48162;DHT22;33950;48.154;16.316;2023-05-10T00:06:32;14.10;80.30
48162;DHT22;33950;48.154;16.316;2023-05-10T00:09:19;14.10;80.10
48162;DHT22;33950;48.154;16.316;2023-05-10T00:12:05;14.20;80.20
48162;DHT22;33950;48.154;16.316;2023-05-10T00:14:51;14.10;80.20
48162;DHT22;33950;48.154;16.316;2023-05-10T00:17:37;14.20;80.00
48162;DHT22;33950;48.154;16.316;2023-05-10T00:20:25;14.10;80.20
48162;DHT22;33950;48.154;16.316;2023-05-10T00:23:11;14.10;80.40
48162;DHT22;33950;48.154;16.316;2023-05-10T00:25:57;14.10;80.10
48162;DHT22;33950;48.154;16.316;2023-05-10T00:28:43;14.00;80.30
48162;DHT22;33950;48.154;16.316;2023-05-10T00:31:29;14.00;80.40
48162;DHT22;33950;48.154;16.316;2023-05-10T00:34:15;13.90;81.20
48162;DHT22;33950;48.154;16.316;2023-05-10T00:37:02;13.90;80.90
48162;DHT22;33950;48.154;16.316;2023-05-10T00:43:30;13.70;81.20
48162;DHT22;33950;48.154;16.316;2023-05-10T00:46:17;13.80;81.10
48162;DHT22;33950;48.154;16.316;2023-05-10T00:49:03;13.80;81.40
48162;DHT22;33950;48.154;16.316;2023-05-10T00:51:50;13.70;81.60
48162;DHT22;33950;48.154;16.316;2023-05-10T00:54:38;13.60;82.00
48162;DHT22;33950;48.154;16.316;2023-05-10T00:57:24;13.60;82.10
48162;DHT22;33950;48.154;16.316;2023-05-10T01:00:11;13.70;82.30
48162;DHT22;33950;48.154;16.316;2023-05-10T01:02:58;13.70;82.20
48162;DHT22;33950;48.154;16.316;2023-05-10T01:05:44;13.70;82.20
48162;DHT22;33950;48.154;16.316;2023-05-10T01:08:30;13.70;82.40
48162;DHT22;33950;48.154;16.316;2023-05-10T01:11:17;13.70;82.70
48162;DHT22;33950;48.154;16.316;2023-05-10T01:14:04;13.70;82.60
48162;DHT22;33950;48.154;16.316;2023-05-10T01:16:51;13.80;82.60
48162;DHT22;33950;48.154;16.316;2023-05-10T01:19:38;13.80;82.40
48162;DHT22;33950;48.154;16.316;2023-05-10T01:26:21;13.80;82.60
48162;DHT22;33950;48.154;16.316;2023-05-10T01:29:23;13.80;83.00
48162;DHT22;33950;48.154;16.316;2023-05-10T01:32:19;13.70;83.00
48162;DHT22;33950;48.154;16.316;2023-05-10T01:35:09;13.70;83.60
48162;DHT22;33950;48.154;16.316;2023-05-10T01:38:03;13.80;83.10
48162;DHT22;33950;48.154;16.316;2023-05-10T01:40:59;13.80;83.00
48162;DHT22;33950;48.154;16.316;2023-05-10T01:44:02;13.80;83.10
48162;DHT22;33950;48.154;16.316;2023-05-10T01:47:01;13.60;83.50
48162;DHT22;33950;48.154;16.316;2023-05-10T01:49:54;13.40;83.90
48162;DHT22;33950;48.154;16.316;2023-05-10T01:52:42;13.40;84.10
48162;DHT22;33950;48.154;16.316;2023-05-10T01:55:32;13.40;84.10
48162;DHT22;33950;48.154;16.316;2023-05-10T01:58:21;13.30;84.40
48162;DHT22;33950;48.154;16.316;2023-05-10T02:01:09;13.40;84.50
48162;DHT22;33950;48.154;16.316;2023-05-10T02:03:57;13.30;84.80
48162;DHT22;33950;48.154;16.316;2023-05-10T02:06:46;13.30;84.80
48162;DHT22;33950;48.154;16.316;2023-05-10T02:09:34;13.30;84.70
48162;DHT22;33950;48.154;16.316;2023-05-10T02:15:11;13.30;89.40
48162;DHT22;33950;48.154;16.316;2023-05-10T02:23:34;12.90;85.10
48162;DHT22;33950;48.154;16.316;2023-05-10T02:34:45;12.90;85.30
48162;DHT22;33950;48.154;16.316;2023-05-10T02:40:22;13.00;86.20
48162;DHT22;33950;48.154;16.316;2023-05-10T02:43:11;12.80;85.90
48162;DHT22;33950;48.154;16.316;2023-05-10T02:45:58;12.80;86.60
48162;DHT22;33950;48.154;16.316;2023-05-10T02:48:44;12.90;86.40
48162;DHT22;33950;48.154;16.316;2023-05-10T02:51:32;12.80;86.50
48162;DHT22;33950;48.154;16.316;2023-05-10T02:54:24;12.80;86.50
48162;DHT22;33950;48.154;16.316;2023-05-10T02:57:16;12.80;86.40
48162;DHT22;33950;48.154;16.316;2023-05-10T03:00:06;12.90;86.40
48162;DHT22;33950;48.154;16.316;2023-05-10T03:02:53;12.90;86.20
48162;DHT22;33950;48.154;16.316;2023-05-10T03:05:39;12.90;86.00
48162;DHT22;33950;48.154;16.316;2023-05-10T03:08:25;12.90;86.40
48162;DHT22;33950;48.154;16.316;2023-05-10T03:11:32;12.90;86.50
48162;DHT22;33950;48.154;16.316;2023-05-10T03:14:34;12.90;86.40
48162;DHT22;33950;48.154;16.316;2023-05-10T03:17:25;13.00;86.50
48162;DHT22;33950;48.154;16.316;2023-05-10T03:20:22;13.00;86.50
48162;DHT22;33950;48.154;16.316;2023-05-10T03:23:13;13.00;86.50
48162;DHT22;33950;48.154;16.316;2023-05-10T03:26:04;13.00;86.30
48162;DHT22;33950;48.154;16.316;2023-05-10T03:28:51;13.00;86.30
48162;DHT22;33950;48.154;16.316;2023-05-10T03:31:39;12.80;87.10
48162;DHT22;33950;48.154;16.316;2023-05-10T03:34:26;13.00;86.50
48162;DHT22;33950;48.154;16.316;2023-05-10T03:37:12;13.00;86.50
48162;DHT22;33950;48.154;16.316;2023-05-10T03:39:58;12.90;86.40
48162;DHT22;33950;48.154;16.316;2023-05-10T03:42:44;12.90;86.50
48162;DHT22;33950;48.154;16.316;2023-05-10T03:45:30;12.90;86.70
48162;DHT22;33950;48.154;16.316;2023-05-10T03:48:18;12.90;86.70
48162;DHT22;33950;48.154;16.316;2023-05-10T03:51:04;12.80;87.00
48162;DHT22;33950;48.154;16.316;2023-05-10T03:53:50;12.80;87.10
48162;DHT22;33950;48.154;16.316;2023-05-10T03:56:36;12.60;87.40
48162;DHT22;33950;48.154;16.316;2023-05-10T03:59:22;12.70;87.40
48162;DHT22;33950;48.154;16.316;2023-05-10T04:02:08;12.60;87.50
48162;DHT22;33950;48.154;16.316;2023-05-10T04:04:56;12.70;87.60
48162;DHT22;33950;48.154;16.316;2023-05-10T04:07:42;12.70;87.70
48162;DHT22;33950;48.154;16.316;2023-05-10T04:10:30;12.70;87.80
48162;DHT22;33950;48.154;16.316;2023-05-10T04:13:16;12.70;87.60
48162;DHT22;33950;48.154;16.316;2023-05-10T04:16:02;12.70;87.70
48162;DHT22;33950;48.154;16.316;2023-05-10T04:18:48;12.70;87.70
48162;DHT22;33950;48.154;16.316;2023-05-10T04:21:36;12.70;87.70
48162;DHT22;33950;48.154;16.316;2023-05-10T04:24:22;12.70;88.50
48162;DHT22;33950;48.154;16.316;2023-05-10T04:27:08;12.70;88.10
48162;DHT22;33950;48.154;16.316;2023-05-10T04:29:54;12.70;87.90
48162;DHT22;33950;48.154;16.316;2023-05-10T04:32:40;12.70;87.90
48162;DHT22;33950;48.154;16.316;2023-05-10T04:35:26;12.70;87.90
48162;DHT22;33950;48.154;16.316;2023-05-10T04:38:14;12.70;87.50
48162;DHT22;33950;48.154;16.316;2023-05-10T04:41:07;12.70;88.30
48162;DHT22;33950;48.154;16.316;2023-05-10T04:43:54;12.70;87.80
48162;DHT22;33950;48.154;16.316;2023-05-10T04:46:40;12.70;87.90
48162;DHT22;33950;48.154;16.316;2023-05-10T04:49:26;12.80;87.60
48162;DHT22;33950;48.154;16.316;2023-05-10T04:52:12;12.70;88.00
48162;DHT22;33950;48.154;16.316;2023-05-10T04:54:59;12.70;87.70
48162;DHT22;33950;48.154;16.316;2023-05-10T04:57:45;12.70;87.80
48162;DHT22;33950;48.154;16.316;2023-05-10T05:00:33;12.80;87.80
48162;DHT22;33950;48.154;16.316;2023-05-10T05:03:19;12.80;88.00
48162;DHT22;33950;48.154;16.316;2023-05-10T05:06:05;12.80;88.10
48162;DHT22;33950;48.154;16.316;2023-05-10T05:08:51;12.80;88.10
48162;DHT22;33950;48.154;16.316;2023-05-10T05:11:39;12.80;88.20
48162;DHT22;33950;48.154;16.316;2023-05-10T05:14:26;12.90;88.50
48162;DHT22;33950;48.154;16.316;2023-05-10T05:17:12;13.00;88.50
48162;DHT22;33950;48.154;16.316;2023-05-10T05:19:58;13.00;88.30
48162;DHT22;33950;48.154;16.316;2023-05-10T05:22:44;13.10;88.40
48162;DHT22;33950;48.154;16.316;2023-05-10T05:25:30;13.20;88.40
48162;DHT22;33950;48.154;16.316;2023-05-10T05:28:18;13.30;88.40
48162;DHT22;33950;48.154;16.316;2023-05-10T05:31:04;13.40;88.70
48162;DHT22;33950;48.154;16.316;2023-05-10T05:33:51;13.50;88.00
48162;DHT22;33950;48.154;16.316;2023-05-10T05:36:37;13.50;87.90
48162;DHT22;33950;48.154;16.316;2023-05-10T05:39:26;13.60;87.70
48162;DHT22;33950;48.154;16.316;2023-05-10T05:42:12;13.60;87.60
48162;DHT22;33950;48.154;16.316;2023-05-10T05:45:01;13.60;87.40
48162;DHT22;33950;48.154;16.316;2023-05-10T05:47:47;13.60;87.60
48162;DHT22;33950;48.154;16.316;2023-05-10T05:50:33;13.70;87.70
48162;DHT22;33950;48.154;16.316;2023-05-10T05:53:19;13.80;87.60
48162;DHT22;33950;48.154;16.316;2023-05-10T05:56:05;13.90;87.20
48162;DHT22;33950;48.154;16.316;2023-05-10T05:58:51;14.00;87.30
48162;DHT22;33950;48.154;16.316;2023-05-10T06:01:39;14.00;87.00
48162;DHT22;33950;48.154;16.316;2023-05-10T06:04:25;14.10;86.80
48162;DHT22;33950;48.154;16.316;2023-05-10T06:07:11;14.10;86.60
48162;DHT22;33950;48.154;16.316;2023-05-10T06:09:57;14.20;86.10
48162;DHT22;33950;48.154;16.316;2023-05-10T06:12:43;14.30;85.70
48162;DHT22;33950;48.154;16.316;2023-05-10T06:15:29;14.30;85.50
48162;DHT22;33950;48.154;16.316;2023-05-10T06:18:17;14.40;85.60
48162;DHT22;33950;48.154;16.316;2023-05-10T06:21:03;14.40;85.30
48162;DHT22;33950;48.154;16.316;2023-05-10T06:23:49;14.40;85.30
48162;DHT22;33950;48.154;16.316;2023-05-10T06:26:35;14.60;85.20
48162;DHT22;33950;48.154;16.316;2023-05-10T06:29:21;14.60;85.00
48162;DHT22;33950;48.154;16.316;2023-05-10T06:32:07;14.70;84.80
48162;DHT22;33950;48.154;16.316;2023-05-10T06:34:55;14.70;83.70
48162;DHT22;33950;48.154;16.316;2023-05-10T06:37:41;14.80;83.40
48162;DHT22;33950;48.154;16.316;2023-05-10T06:40:27;14.80;83.00
48162;DHT22;33950;48.154;16.316;2023-05-10T06:43:13;14.80;82.60
48162;DHT22;33950;48.154;16.316;2023-05-10T06:45:59;14.80;82.90
48162;DHT22;33950;48.154;16.316;2023-05-10T06:48:45;14.90;83.50
48162;DHT22;33950;48.154;16.316;2023-05-10T06:51:33;15.00;82.80
48162;DHT22;33950;48.154;16.316;2023-05-10T06:54:19;15.00;82.00
48162;DHT22;33950;48.154;16.316;2023-05-10T06:57:05;15.10;82.30
48162;DHT22;33950;48.154;16.316;2023-05-10T06:59:52;15.10;82.00
48162;DHT22;33950;48.154;16.316;2023-05-10T07:02:38;15.20;82.00
48162;DHT22;33950;48.154;16.316;2023-05-10T07:05:24;15.20;81.90
48162;DHT22;33950;48.154;16.316;2023-05-10T07:08:12;15.40;81.40
48162;DHT22;33950;48.154;16.316;2023-05-10T07:11:02;15.40;80.60
48162;DHT22;33950;48.154;16.316;2023-05-10T07:13:49;15.40;80.80
48162;DHT22;33950;48.154;16.316;2023-05-10T07:16:35;15.40;80.10
48162;DHT22;33950;48.154;16.316;2023-05-10T07:19:22;15.50;80.00
48162;DHT22;33950;48.154;16.316;2023-05-10T07:22:08;15.50;79.80
48162;DHT22;33950;48.154;16.316;2023-05-10T07:24:55;15.50;79.50
48162;DHT22;33950;48.154;16.316;2023-05-10T07:27:42;15.60;79.60
48162;DHT22;33950;48.154;16.316;2023-05-10T07:30:28;15.80;80.10
48162;DHT22;33950;48.154;16.316;2023-05-10T07:33:14;16.00;80.80
48162;DHT22;33950;48.154;16.316;2023-05-10T07:36:00;16.00;81.00
48162;DHT22;33950;48.154;16.316;2023-05-10T07:38:46;16.00;80.90
48162;DHT22;33950;48.154;16.316;2023-05-10T07:41:34;16.00;81.00
48162;DHT22;33950;48.154;16.316;2023-05-10T07:44:20;16.10;81.50
48162;DHT22;33950;48.154;16.316;2023-05-10T07:47:06;16.10;81.70
48162;DHT22;33950;48.154;16.316;2023-05-10T07:49:52;16.10;81.50
48162;DHT22;33950;48.154;16.316;2023-05-10T07:52:38;15.00;81.00
48162;DHT22;33950;48.154;16.316;2023-05-10T07:55:24;16.20;82.40
48162;DHT22;33950;48.154;16.316;2023-05-10T07:58:12;16.20;82.40
48162;DHT22;33950;48.154;16.316;2023-05-10T08:20:25;16.50;81.90
48162;DHT22;33950;48.154;16.316;2023-05-10T08:23:12;16.60;82.60
48162;DHT22;33950;48.154;16.316;2023-05-10T08:25:59;16.50;82.70
48162;DHT22;33950;48.154;16.316;2023-05-10T08:28:45;16.50;81.90
48162;DHT22;33950;48.154;16.316;2023-05-10T08:31:32;16.70;81.30
48162;DHT22;33950;48.154;16.316;2023-05-10T08:34:18;16.80;81.00
48162;DHT22;33950;48.154;16.316;2023-05-10T08:37:04;16.90;81.60
48162;DHT22;33950;48.154;16.316;2023-05-10T08:39:50;17.00;81.80
48162;DHT22;33950;48.154;16.316;2023-05-10T08:42:40;17.10;80.90
48162;DHT22;33950;48.154;16.316;2023-05-10T08:45:29;17.30;80.70
48162;DHT22;33950;48.154;16.316;2023-05-10T08:48:19;17.40;80.70
48162;DHT22;33950;48.154;16.316;2023-05-10T08:51:08;17.50;80.60
48162;DHT22;33950;48.154;16.316;2023-05-10T08:53:55;17.60;80.20
48162;DHT22;33950;48.154;16.316;2023-05-10T08:56:41;17.60;80.20
48162;DHT22;33950;48.154;16.316;2023-05-10T08:59:30;17.60;80.00
48162;DHT22;33950;48.154;16.316;2023-05-10T09:02:17;17.70;80.10
48162;DHT22;33950;48.154;16.316;2023-05-10T09:05:06;17.80;80.30
48162;DHT22;33950;48.154;16.316;2023-05-10T09:07:53;17.90;79.90
48162;DHT22;33950;48.154;16.316;2023-05-10T09:10:40;17.90;79.50
48162;DHT22;33950;48.154;16.316;2023-05-10T09:13:29;18.00;80.00
48162;DHT22;33950;48.154;16.316;2023-05-10T09:16:16;18.10;78.90
48162;DHT22;33950;48.154;16.316;2023-05-10T09:19:03;17.90;79.10
48162;DHT22;33950;48.154;16.316;2023-05-10T09:21:50;18.00;78.20
48162;DHT22;33950;48.154;16.316;2023-05-10T09:24:36;17.90;78.00
48162;DHT22;33950;48.154;16.316;2023-05-10T09:27:28;17.80;78.10
48162;DHT22;33950;48.154;16.316;2023-05-10T09:30:23;17.90;79.00
48162;DHT22;33950;48.154;16.316;2023-05-10T09:33:09;18.10;79.20
48162;DHT22;33950;48.154;16.316;2023-05-10T09:36:05;18.10;77.80
48162;DHT22;33950;48.154;16.316;2023-05-10T09:38:53;18.20;78.60
48162;DHT22;33950;48.154;16.316;2023-05-10T09:41:42;18.30;78.20
48162;DHT22;33950;48.154;16.316;2023-05-10T09:44:28;18.40;78.20
48162;DHT22;33950;48.154;16.316;2023-05-10T09:47:17;18.50;78.00
48162;DHT22;33950;48.154;16.316;2023-05-10T09:50:05;18.40;76.50
48162;DHT22;33950;48.154;16.316;2023-05-10T09:52:53;18.40;76.50
48162;DHT22;33950;48.154;16.316;2023-05-10T09:55:43;18.40;77.00
48162;DHT22;33950;48.154;16.316;2023-05-10T09:58:36;18.50;77.90
48162;DHT22;33950;48.154;16.316;2023-05-10T10:01:25;18.70;77.50
48162;DHT22;33950;48.154;16.316;2023-05-10T10:04:12;18.70;78.50
48162;DHT22;33950;48.154;16.316;2023-05-10T10:06:59;18.70;77.80
48162;DHT22;33950;48.154;16.316;2023-05-10T10:09:46;18.70;76.70
48162;DHT22;33950;48.154;16.316;2023-05-10T10:12:34;18.60;77.20
48162;DHT22;33950;48.154;16.316;2023-05-10T10:15:22;18.70;75.60
48162;DHT22;33950;48.154;16.316;2023-05-10T10:18:12;18.70;76.10
48162;DHT22;33950;48.154;16.316;2023-05-10T10:20:58;18.80;76.90
48162;DHT22;33950;48.154;16.316;2023-05-10T10:23:46;18.90;76.60
48162;DHT22;33950;48.154;16.316;2023-05-10T10:26:33;19.00;76.50
48162;DHT22;33950;48.154;16.316;2023-05-10T10:29:26;19.20;76.80
48162;DHT22;33950;48.154;16.316;2023-05-10T10:32:24;19.40;75.60
48162;DHT22;33950;48.154;16.316;2023-05-10T10:35:11;20.10;75.60
48162;DHT22;33950;48.154;16.316;2023-05-10T10:37:57;21.00;73.60
48162;DHT22;33950;48.154;16.316;2023-05-10T10:40:44;21.50;72.50
48162;DHT22;33950;48.154;16.316;2023-05-10T10:43:30;22.00;70.60
48162;DHT22;33950;48.154;16.316;2023-05-10T10:46:18;22.60;70.60
48162;DHT22;33950;48.154;16.316;2023-05-10T10:49:09;23.00;69.90
48162;DHT22;33950;48.154;16.316;2023-05-10T10:52:17;23.20;68.70
48162;DHT22;33950;48.154;16.316;2023-05-10T10:55:07;23.30;69.70
48162;DHT22;33950;48.154;16.316;2023-05-10T10:57:56;23.70;67.90
48162;DHT22;33950;48.154;16.316;2023-05-10T11:00:50;23.20;67.90
48162;DHT22;33950;48.154;16.316;2023-05-10T11:03:37;22.70;67.30
48162;DHT22;33950;48.154;16.316;2023-05-10T11:06:29;22.40;68.00
48162;DHT22;33950;48.154;16.316;2023-05-10T11:09:15;22.30;67.90
48162;DHT22;33950;48.154;16.316;2023-05-10T11:12:08;22.50;68.10
48162;DHT22;33950;48.154;16.316;2023-05-10T11:14:57;22.90;68.70
48162;DHT22;33950;48.154;16.316;2023-05-10T11:17:43;23.40;67.50
48162;DHT22;33950;48.154;16.316;2023-05-10T11:20:38;23.60;69.40
48162;DHT22;33950;48.154;16.316;2023-05-10T11:23:29;23.60;67.50
48162;DHT22;33950;48.154;16.316;2023-05-10T11:26:16;23.70;68.10
48162;DHT22;33950;48.154;16.316;2023-05-10T11:29:03;23.70;66.70
48162;DHT22;33950;48.154;16.316;2023-05-10T11:31:51;23.80;67.10
48162;DHT22;33950;48.154;16.316;2023-05-10T11:34:37;23.70;66.70
48162;DHT22;33950;48.154;16.316;2023-05-10T11:37:28;23.70;67.30
48162;DHT22;33950;48.154;16.316;2023-05-10T11:40:18;23.70;66.90
48162;DHT22;33950;48.154;16.316;2023-05-10T11:43:04;23.60;65.90
48162;DHT22;33950;48.154;16.316;2023-05-10T11:45:51;23.60;66.60
48162;DHT22;33950;48.154;16.316;2023-05-10T11:48:38;23.70;65.80
48162;DHT22;33950;48.154;16.316;2023-05-10T11:51:25;23.90;66.80
48162;DHT22;33950;48.154;16.316;2023-05-10T11:54:13;24.20;66.20
48162;DHT22;33950;48.154;16.316;2023-05-10T11:56:59;24.70;65.20
48162;DHT22;33950;48.154;16.316;2023-05-10T11:59:45;24.80;64.90
48162;DHT22;33950;48.154;16.316;2023-05-10T12:02:32;24.80;64.30
48162;DHT22;33950;48.154;16.316;2023-05-10T12:05:18;24.70;65.40
48162;DHT22;33950;48.154;16.316;2023-05-10T12:08:11;24.90;65.60
48162;DHT22;33950;48.154;16.316;2023-05-10T12:11:06;25.00;64.30
48162;DHT22;33950;48.154;16.316;2023-05-10T12:13:53;24.70;64.50
48162;DHT22;33950;48.154;16.316;2023-05-10T12:16:39;24.20;64.30
48162;DHT22;33950;48.154;16.316;2023-05-10T12:19:26;23.70;65.10
48162;DHT22;33950;48.154;16.316;2023-05-10T12:22:12;23.80;66.90
48162;DHT22;33950;48.154;16.316;2023-05-10T12:24:58;24.10;66.60
48162;DHT22;33950;48.154;16.316;2023-05-10T12:27:50;24.20;66.10
48162;DHT22;33950;48.154;16.316;2023-05-10T12:30:37;24.00;66.80
48162;DHT22;33950;48.154;16.316;2023-05-10T12:33:24;23.80;66.40
48162;DHT22;33950;48.154;16.316;2023-05-10T12:36:11;24.10;65.60
48162;DHT22;33950;48.154;16.316;2023-05-10T12:39:02;24.00;65.90
48162;DHT22;33950;48.154;16.316;2023-05-10T12:41:49;24.00;66.10
48162;DHT22;33950;48.154;16.316;2023-05-10T12:44:36;24.00;65.80
48162;DHT22;33950;48.154;16.316;2023-05-10T12:47:22;23.90;65.10
48162;DHT22;33950;48.154;16.316;2023-05-10T12:50:09;23.70;65.30
48162;DHT22;33950;48.154;16.316;2023-05-10T12:52:56;23.50;65.40
48162;DHT22;33950;48.154;16.316;2023-05-10T12:55:42;23.80;66.10
48162;DHT22;33950;48.154;16.316;2023-05-10T12:58:28;23.70;64.90
48162;DHT22;33950;48.154;16.316;2023-05-10T13:01:15;23.30;64.80
48162;DHT22;33950;48.154;16.316;2023-05-10T13:04:01;23.10;65.40
48162;DHT22;33950;48.154;16.316;2023-05-10T13:06:48;23.10;66.50
48162;DHT22;33950;48.154;16.316;2023-05-10T13:09:34;22.90;65.90
48162;DHT22;33950;48.154;16.316;2023-05-10T13:12:20;23.00;66.40
48162;DHT22;33950;48.154;16.316;2023-05-10T13:15:07;22.90;66.00
48162;DHT22;33950;48.154;16.316;2023-05-10T13:17:55;23.40;66.00
48162;DHT22;33950;48.154;16.316;2023-05-10T13:20:41;23.50;66.10
48162;DHT22;33950;48.154;16.316;2023-05-10T13:23:28;23.50;66.10
48162;DHT22;33950;48.154;16.316;2023-05-10T13:26:15;23.30;66.40
48162;DHT22;33950;48.154;16.316;2023-05-10T13:29:03;23.40;66.50
48162;DHT22;33950;48.154;16.316;2023-05-10T13:31:49;23.70;65.30
48162;DHT22;33950;48.154;16.316;2023-05-10T13:34:37;24.00;65.30
48162;DHT22;33950;48.154;16.316;2023-05-10T13:37:24;23.90;64.00
48162;DHT22;33950;48.154;16.316;2023-05-10T13:40:10;23.70;65.00
48162;DHT22;33950;48.154;16.316;2023-05-10T13:42:57;23.20;65.70
48162;DHT22;33950;48.154;16.316;2023-05-10T13:45:43;23.00;66.30
48162;DHT22;33950;48.154;16.316;2023-05-10T13:48:29;23.40;66.00
48162;DHT22;33950;48.154;16.316;2023-05-10T13:51:17;23.60;67.00
48162;DHT22;33950;48.154;16.316;2023-05-10T13:54:03;23.70;66.10
48162;DHT22;33950;48.154;16.316;2023-05-10T13:56:49;23.60;66.40
48162;DHT22;33950;48.154;16.316;2023-05-10T13:59:35;23.70;65.20
48162;DHT22;33950;48.154;16.316;2023-05-10T14:02:21;23.30;65.40
48162;DHT22;33950;48.154;16.316;2023-05-10T14:05:08;23.40;66.40
48162;DHT22;33950;48.154;16.316;2023-05-10T14:07:56;23.70;66.30
48162;DHT22;33950;48.154;16.316;2023-05-10T14:10:42;23.60;65.90
48162;DHT22;33950;48.154;16.316;2023-05-10T14:13:28;23.50;65.50
48162;DHT22;33950;48.154;16.316;2023-05-10T14:16:14;23.40;65.80
48162;DHT22;33950;48.154;16.316;2023-05-10T14:19:00;23.10;65.70
48162;DHT22;33950;48.154;16.316;2023-05-10T14:21:47;22.80;65.20
48162;DHT22;33950;48.154;16.316;2023-05-10T14:24:34;22.60;65.50
48162;DHT22;33950;48.154;16.316;2023-05-10T14:27:20;22.40;65.90
48162;DHT22;33950;48.154;16.316;2023-05-10T14:30:08;22.80;64.90
48162;DHT22;33950;48.154;16.316;2023-05-10T14:32:54;22.80;64.60
48162;DHT22;33950;48.154;16.316;2023-05-10T14:35:40;22.60;64.80
48162;DHT22;33950;48.154;16.316;2023-05-10T14:38:26;22.40;64.80
48162;DHT22;33950;48.154;16.316;2023-05-10T14:41:14;22.30;65.20
48162;DHT22;33950;48.154;16.316;2023-05-10T14:44:02;22.30;65.10
48162;DHT22;33950;48.154;16.316;2023-05-10T14:46:49;22.30;65.00
48162;DHT22;33950;48.154;16.316;2023-05-10T14:49:35;22.50;64.90
48162;DHT22;33950;48.154;16.316;2023-05-10T14:52:21;22.70;64.40
48162;DHT22;33950;48.154;16.316;2023-05-10T14:55:08;22.80;63.50
48162;DHT22;33950;48.154;16.316;2023-05-10T14:57:55;22.70;64.40
48162;DHT22;33950;48.154;16.316;2023-05-10T15:00:42;22.50;64.70
48162;DHT22;33950;48.154;16.316;2023-05-10T15:03:29;22.50;65.00
48162;DHT22;33950;48.154;16.316;2023-05-10T15:06:15;22.40;64.40
48162;DHT22;33950;48.154;16.316;2023-05-10T15:09:02;22.30;64.70
48162;DHT22;33950;48.154;16.316;2023-05-10T15:11:49;22.30;65.10
48162;DHT22;33950;48.154;16.316;2023-05-10T15:14:36;22.60;64.80
48162;DHT22;33950;48.154;16.316;2023-05-10T15:17:22;22.80;64.30
48162;DHT22;33950;48.154;16.316;2023-05-10T15:20:09;22.60;64.20
48162;DHT22;33950;48.154;16.316;2023-05-10T15:22:55;22.50;65.10
48162;DHT22;33950;48.154;16.316;2023-05-10T15:25:41;22.20;65.00
48162;DHT22;33950;48.154;16.316;2023-05-10T15:28:28;22.30;64.80
48162;DHT22;33950;48.154;16.316;2023-05-10T15:31:15;22.30;65.00
48162;DHT22;33950;48.154;16.316;2023-05-10T15:34:01;22.30;64.80
48162;DHT22;33950;48.154;16.316;2023-05-10T15:36:48;22.20;65.00
48162;DHT22;33950;48.154;16.316;2023-05-10T15:39:34;22.10;65.70
48162;DHT22;33950;48.154;16.316;2023-05-10T15:42:20;21.90;65.80
48162;DHT22;33950;48.154;16.316;2023-05-10T15:45:08;21.80;66.30
48162;DHT22;33950;48.154;16.316;2023-05-10T15:47:55;21.80;66.40
48162;DHT22;33950;48.154;16.316;2023-05-10T15:50:41;21.80;66.60
48162;DHT22;33950;48.154;16.316;2023-05-10T15:53:28;21.80;66.60
48162;DHT22;33950;48.154;16.316;2023-05-10T15:56:14;21.70;66.90
48162;DHT22;33950;48.154;16.316;2023-05-10T15:59:00;21.60;66.90
48162;DHT22;33950;48.154;16.316;2023-05-10T16:01:46;21.50;66.80
48162;DHT22;33950;48.154;16.316;2023-05-10T16:04:34;21.50;67.00
48162;DHT22;33950;48.154;16.316;2023-05-10T16:07:20;21.40;67.00
48162;DHT22;33950;48.154;16.316;2023-05-10T16:10:08;21.40;67.30
48162;DHT22;33950;48.154;16.316;2023-05-10T16:12:54;21.40;67.60
48162;DHT22;33950;48.154;16.316;2023-05-10T16:15:41;21.30;66.30
48162;DHT22;33950;48.154;16.316;2023-05-10T16:18:27;21.10;66.60
48162;DHT22;33950;48.154;16.316;2023-05-10T16:21:15;21.20;66.70
48162;DHT22;33950;48.154;16.316;2023-05-10T16:24:02;21.40;67.10
48162;DHT22;33950;48.154;16.316;2023-05-10T16:26:48;21.60;66.50
48162;DHT22;33950;48.154;16.316;2023-05-10T16:29:34;21.70;66.60
48162;DHT22;33950;48.154;16.316;2023-05-10T16:32:20;21.90;66.10
48162;DHT22;33950;48.154;16.316;2023-05-10T16:35:07;21.80;65.90
48162;DHT22;33950;48.154;16.316;2023-05-10T16:37:56;21.80;66.70
48162;DHT22;33950;48.154;16.316;2023-05-10T16:40:42;21.70;66.20
48162;DHT22;33950;48.154;16.316;2023-05-10T16:43:28;21.50;66.40
48162;DHT22;33950;48.154;16.316;2023-05-10T16:46:14;21.50;66.40
48162;DHT22;33950;48.154;16.316;2023-05-10T16:49:01;21.50;66.20
48162;DHT22;33950;48.154;16.316;2023-05-10T16:51:47;21.30;66.00
48162;DHT22;33950;48.154;16.316;2023-05-10T16:54:34;21.20;66.20
48162;DHT22;33950;48.154;16.316;2023-05-10T16:57:20;21.20;66.50
48162;DHT22;33950;48.154;16.316;2023-05-10T17:00:08;21.20;66.50
48162;DHT22;33950;48.154;16.316;2023-05-10T17:02:56;21.20;66.70
48162;DHT22;33950;48.154;16.316;2023-05-10T17:05:42;21.20;66.50
48162;DHT22;33950;48.154;16.316;2023-05-10T17:08:28;21.10;66.80
48162;DHT22;33950;48.154;16.316;2023-05-10T17:11:16;21.10;66.80
48162;DHT22;33950;48.154;16.316;2023-05-10T17:14:04;21.00;67.00
48162;DHT22;33950;48.154;16.316;2023-05-10T17:16:50;21.00;66.90
48162;DHT22;33950;48.154;16.316;2023-05-10T17:19:40;21.00;67.20
48162;DHT22;33950;48.154;16.316;2023-05-10T17:22:29;20.90;68.00
48162;DHT22;33950;48.154;16.316;2023-05-10T17:25:15;20.90;67.50
48162;DHT22;33950;48.154;16.316;2023-05-10T17:28:03;20.80;67.50
48162;DHT22;33950;48.154;16.316;2023-05-10T17:30:54;20.80;67.80
48162;DHT22;33950;48.154;16.316;2023-05-10T17:33:41;20.60;68.30
48162;DHT22;33950;48.154;16.316;2023-05-10T17:36:27;20.60;68.30
48162;DHT22;33950;48.154;16.316;2023-05-10T17:39:14;20.60;68.40
48162;DHT22;33950;48.154;16.316;2023-05-10T17:42:00;20.50;68.30
48162;DHT22;33950;48.154;16.316;2023-05-10T17:44:47;20.40;68.50
48162;DHT22;33950;48.154;16.316;2023-05-10T17:47:33;20.50;68.30
48162;DHT22;33950;48.154;16.316;2023-05-10T17:50:19;20.60;68.30
48162;DHT22;33950;48.154;16.316;2023-05-10T17:53:06;20.60;68.40
48162;DHT22;33950;48.154;16.316;2023-05-10T17:55:52;20.50;68.30
48162;DHT22;33950;48.154;16.316;2023-05-10T17:58:45;20.40;68.60
48162;DHT22;33950;48.154;16.316;2023-05-10T18:01:33;20.30;69.00
48162;DHT22;33950;48.154;16.316;2023-05-10T18:04:19;20.30;69.10
48162;DHT22;33950;48.154;16.316;2023-05-10T18:07:06;20.30;69.20